KSGU

St George Regional Airport

St George, Utah, USA
METAR KSGU 252156Z AUTO 25015G28KT 10SM CLR 33/M03 A2985 RMK AO2 PK WND 21028/2147 SLP073 T03281028
Observed Flight Rules
May-25 @ 21:56 UTC (29 minutes ago) Visual Flight Rules
Wind Visibility Clouds
250° at 15 knots
 Gusting to 28 knots
10 miles
  • Clear skies
Temperatures Readings
Current 33°C / 91°F
Dewpoint -3°C / 27°F
Humidity 10%
Altimeter 29.85" Hg
Pressure 1007.3 hPa
Elevation 896
METAR KSGU 252156Z AUTO 25015G28KT 10SM CLR 33/M03 A2985 RMK AO2 PK WND 21028/2147 SLP073 T03281028
Observed Flight Rules
May-25 @ 21:56 UTC
(29 minutes ago)
VFR
Wind Visibility
250° at 15 knots
 Gusting to 28 knots
10 miles
Clouds
  • Clear skies
Temperature Dewpoint
33°C / 91°F -3°C / 27°F
Humidity Altimeter Pressure
10% 29.85" Hg 1007.3 hPa